Sterling/Rock Falls, Illinois
Current Conditions -  °F | °C
As of 4:55 PM on Thursday 23 Oct 2014 (Local Time) from KSQI Reporting Station
Overcast Overcast  
Wind Chill: 14°   Ceiling: 6000
Heat Index: 14°   Visibility: 10mi
Dew Point:   Wind: 6mph
Humidity: 59%   Direction: 180°S
Pressure: 30.05"   Gusts: NA
Location:  41.73°N, 89.68°W
Report Text: KSQI 232155Z AUTO 18005KT 10SM FEW045 BKN060 OVC120 14/06 A3005 RMK AO1
Loading
Personal Weather Stations






























Interactive Weather Map New forecast layout! Learn more

10-Day Weather Forecast

Advertisements
Track Severe Weather on mobile